createdAt,value
2018-06-21T00:00:24.996Z,21.20
2018-06-21T00:05:21.120Z,21.10
2018-06-21T00:17:41.287Z,20.80
2018-06-21T00:20:09.442Z,20.80
2018-06-21T00:30:01.460Z,20.80
2018-06-21T00:47:17.450Z,20.80
2018-06-21T00:49:45.624Z,20.80
2018-06-21T00:52:13.797Z,20.80
2018-06-21T00:54:41.962Z,20.80
2018-06-21T00:59:38.046Z,20.80
2018-06-21T01:02:07.257Z,20.70
2018-06-21T01:14:32.141Z,20.60
2018-06-21T01:17:00.324Z,20.70
2018-06-21T01:19:28.523Z,20.70
2018-06-21T01:21:56.772Z,20.60
2018-06-21T01:24:25.452Z,20.50
2018-06-21T01:26:53.675Z,20.50
2018-06-21T01:29:21.968Z,20.50
2018-06-21T01:31:50.157Z,20.40
2018-06-21T01:39:14.361Z,20.30
2018-06-21T01:41:42.548Z,20.20
2018-06-21T01:44:10.724Z,20.10
2018-06-21T01:49:07.465Z,20.00
2018-06-21T01:51:35.715Z,19.90
2018-06-21T01:54:04.724Z,19.90
2018-06-21T01:56:32.993Z,19.90
2018-06-21T01:59:01.858Z,19.90
2018-06-21T02:01:30.216Z,19.90
2018-06-21T02:03:58.460Z,19.80
2018-06-21T02:06:27.470Z,19.80
2018-06-21T02:11:24.202Z,19.80
2018-06-21T02:16:20.356Z,19.70
2018-06-21T02:18:48.614Z,19.60
2018-06-21T02:23:45.304Z,19.50
2018-06-21T02:26:13.722Z,19.40
2018-06-21T02:28:41.940Z,19.40
2018-06-21T02:31:10.200Z,19.40
2018-06-21T02:33:39.449Z,19.30
2018-06-21T02:36:07.666Z,19.10
2018-06-21T02:41:03.884Z,19.10
2018-06-21T02:43:32.085Z,19.10
2018-06-21T02:50:56.209Z,18.90
2018-06-21T02:55:52.545Z,18.80
2018-06-21T02:58:20.737Z,18.80
2018-06-21T03:00:48.976Z,18.80
2018-06-21T03:03:17.157Z,18.70
2018-06-21T03:05:45.363Z,18.60
2018-06-21T03:08:13.629Z,18.60
2018-06-21T03:13:09.784Z,18.60
2018-06-21T03:18:05.920Z,18.50
2018-06-21T03:20:34.117Z,18.50
2018-06-21T03:23:02.325Z,18.60
2018-06-21T03:25:30.540Z,18.50
2018-06-21T03:27:58.724Z,18.60
2018-06-21T03:30:26.912Z,18.60
2018-06-21T03:32:55.135Z,18.50
2018-06-21T03:35:23.317Z,18.50
2018-06-21T03:37:51.499Z,18.50
2018-06-21T03:40:19.878Z,18.40
2018-06-21T03:42:48.157Z,18.30
2018-06-21T03:45:16.430Z,18.30
2018-06-21T03:47:44.645Z,18.20
2018-06-21T03:50:12.905Z,18.40
2018-06-21T03:52:41.185Z,18.40
2018-06-21T03:57:37.405Z,18.40
2018-06-21T04:00:05.826Z,18.40
2018-06-21T04:02:34.081Z,18.40
2018-06-21T04:05:02.330Z,18.40
2018-06-21T04:07:30.515Z,18.50
2018-06-21T04:09:58.776Z,18.60
2018-06-21T04:12:27.044Z,18.60
2018-06-21T04:14:56.157Z,18.50
2018-06-21T04:17:24.444Z,18.50
2018-06-21T04:19:52.741Z,18.50
2018-06-21T04:22:20.973Z,18.60
2018-06-21T04:24:49.190Z,18.70
2018-06-21T04:27:17.419Z,18.70
2018-06-21T04:29:45.635Z,18.70
2018-06-21T04:32:13.885Z,18.80
2018-06-21T04:34:42.078Z,18.80
2018-06-21T04:37:10.265Z,18.90
2018-06-21T04:39:38.530Z,19.00
2018-06-21T04:42:06.795Z,19.00
2018-06-21T04:44:35.071Z,18.90
2018-06-21T04:47:03.310Z,18.90
2018-06-21T04:49:31.545Z,18.90
2018-06-21T04:51:59.791Z,18.90
2018-06-21T04:54:28.054Z,18.90
2018-06-21T04:56:56.406Z,18.90
2018-06-21T04:59:24.693Z,18.90
2018-06-21T05:01:53.509Z,19.00
2018-06-21T05:04:21.796Z,19.10
2018-06-21T05:06:50.200Z,19.20
2018-06-21T05:09:18.467Z,19.20
2018-06-21T05:11:46.748Z,19.20
2018-06-21T05:14:14.949Z,19.10
2018-06-21T05:16:43.767Z,19.30
2018-06-21T05:19:13.108Z,19.50
2018-06-21T05:21:41.384Z,19.60
2018-06-21T05:24:10.099Z,19.80
2018-06-21T05:26:38.371Z,19.90
2018-06-21T05:29:06.548Z,19.90
2018-06-21T05:31:34.721Z,19.80
2018-06-21T05:36:31.025Z,19.70
2018-06-21T05:38:59.243Z,19.80
2018-06-21T05:41:27.408Z,19.80
2018-06-21T05:43:55.669Z,19.90
2018-06-21T05:46:24.007Z,20.00
2018-06-21T05:48:52.282Z,19.90
2018-06-21T05:51:20.530Z,19.90
2018-06-21T05:53:48.798Z,19.80
2018-06-21T05:56:17.078Z,19.90
2018-06-21T05:58:45.452Z,19.80
2018-06-21T06:01:13.735Z,19.80
2018-06-21T06:03:42.038Z,20.00
2018-06-21T06:08:39.520Z,20.30
2018-06-21T06:13:36.172Z,20.20
2018-06-21T06:16:04.475Z,20.00
2018-06-21T06:18:32.749Z,20.10
2018-06-21T06:21:01.931Z,20.10
2018-06-21T06:23:30.179Z,20.20
2018-06-21T06:25:58.466Z,20.20
2018-06-21T06:28:27.343Z,20.00
2018-06-21T06:30:55.526Z,19.90
2018-06-21T06:38:20.590Z,19.70
2018-06-21T06:40:48.788Z,19.60
2018-06-21T06:43:17.001Z,19.40
2018-06-21T06:45:45.188Z,19.20
2018-06-21T06:48:13.384Z,19.20
2018-06-21T06:50:41.639Z,19.10
2018-06-21T06:53:09.812Z,19.00
2018-06-21T06:55:38.005Z,19.00
2018-06-21T06:58:06.296Z,18.90
2018-06-21T07:00:34.472Z,18.90
2018-06-21T07:03:02.693Z,18.90
2018-06-21T07:05:30.846Z,18.90
2018-06-21T07:07:59.044Z,18.90
2018-06-21T07:12:55.185Z,18.90
2018-06-21T07:15:23.358Z,18.80
2018-06-21T07:17:51.540Z,18.60
2018-06-21T07:20:19.801Z,18.70
2018-06-21T07:22:47.912Z,18.60
2018-06-21T07:25:22.511Z,18.40
2018-06-21T07:27:50.666Z,18.50
2018-06-21T07:30:18.877Z,18.50
2018-06-21T07:32:47.289Z,18.60
2018-06-21T07:35:15.498Z,18.60
2018-06-21T07:37:43.681Z,18.50
2018-06-21T07:40:11.870Z,18.40
2018-06-21T07:42:40.041Z,18.40
2018-06-21T07:47:36.156Z,18.40
2018-06-21T07:50:04.485Z,18.50
2018-06-21T07:52:32.656Z,18.40
2018-06-21T07:55:00.857Z,18.40
2018-06-21T07:57:29.048Z,18.20
2018-06-21T07:59:57.188Z,17.90
2018-06-21T08:02:25.403Z,17.80
2018-06-21T08:04:53.577Z,17.80
2018-06-21T08:07:21.752Z,17.60
2018-06-21T08:17:13.775Z,17.70
2018-06-21T08:19:41.952Z,17.70
2018-06-21T08:22:10.176Z,17.70
2018-06-21T08:24:38.369Z,17.80
2018-06-21T08:27:06.577Z,18.10
2018-06-21T08:29:34.753Z,18.30
2018-06-21T08:32:02.967Z,18.40
2018-06-21T08:34:31.139Z,18.70
2018-06-21T08:36:59.349Z,18.80
2018-06-21T08:39:27.557Z,18.60
2018-06-21T08:41:55.747Z,18.60
2018-06-21T08:44:23.894Z,18.70
2018-06-21T08:46:52.080Z,18.70
2018-06-21T08:49:20.292Z,18.50
2018-06-21T08:56:44.396Z,18.70
2018-06-21T09:01:40.536Z,18.70
2018-06-21T09:04:08.705Z,18.80
2018-06-21T09:06:36.882Z,18.70
2018-06-21T09:09:07.556Z,18.90
2018-06-21T09:14:03.701Z,19.50
2018-06-21T09:16:31.900Z,19.50
2018-06-21T09:19:00.074Z,19.50
2018-06-21T09:21:29.128Z,19.40
2018-06-21T09:23:57.295Z,19.70
2018-06-21T09:26:25.472Z,20.40
2018-06-21T09:28:53.679Z,20.50
2018-06-21T09:31:21.841Z,20.40
2018-06-21T09:33:50.001Z,20.50
2018-06-21T09:36:18.232Z,20.90
2018-06-21T09:38:51.798Z,20.40
2018-06-21T09:41:25.197Z,20.00
2018-06-21T09:44:03.830Z,20.00
2018-06-21T09:46:34.611Z,20.00
2018-06-21T09:56:24.330Z,19.50
2018-06-21T09:58:52.504Z,19.40
2018-06-21T10:01:20.678Z,19.60
2018-06-21T10:03:48.865Z,20.20
2018-06-21T10:06:17.058Z,20.70
2018-06-21T10:08:45.212Z,21.40
2018-06-21T10:11:13.385Z,21.80
2018-06-21T10:13:41.558Z,21.80
2018-06-21T10:16:09.720Z,21.00
2018-06-21T10:18:37.972Z,20.50
2018-06-21T10:23:34.085Z,19.60
2018-06-21T10:26:02.292Z,20.10
2018-06-21T10:30:58.492Z,22.20
2018-06-21T10:38:22.571Z,22.50
2018-06-21T10:43:18.696Z,21.80
2018-06-21T10:45:46.887Z,21.20
2018-06-21T10:48:15.084Z,21.20
2018-06-21T10:53:11.228Z,22.30
2018-06-21T10:55:39.444Z,21.00
2018-06-21T10:58:07.621Z,20.60
2018-06-21T11:00:35.825Z,20.90
2018-06-21T11:03:03.988Z,21.60
2018-06-21T11:05:32.185Z,21.10
2018-06-21T11:08:00.376Z,20.20
2018-06-21T11:10:28.537Z,20.90
2018-06-21T11:12:56.867Z,22.00
2018-06-21T11:15:25.101Z,22.10
2018-06-21T11:17:53.317Z,21.90
2018-06-21T11:20:21.732Z,22.40
2018-06-21T11:22:49.934Z,22.80
2018-06-21T11:25:18.101Z,22.00
2018-06-21T11:27:46.389Z,22.00
2018-06-21T11:30:14.520Z,22.30
2018-06-21T11:32:42.718Z,22.00
2018-06-21T11:35:10.881Z,22.70
2018-06-21T11:40:06.990Z,23.10
2018-06-21T11:42:35.176Z,23.00
2018-06-21T11:45:03.378Z,23.10
2018-06-21T11:47:31.688Z,22.20
2018-06-21T11:49:59.896Z,22.30
2018-06-21T11:52:28.075Z,21.90
2018-06-21T11:57:24.163Z,22.50
2018-06-21T11:59:52.386Z,21.80
2018-06-21T12:02:20.618Z,21.70
2018-06-21T12:07:16.809Z,23.10
2018-06-21T12:09:45.082Z,23.10
2018-06-21T12:12:13.261Z,22.10
2018-06-21T12:14:41.430Z,22.20
2018-06-21T12:17:09.602Z,21.40
2018-06-21T12:19:37.917Z,21.20
2018-06-21T12:22:06.212Z,22.30
2018-06-21T12:24:34.387Z,22.90
2018-06-21T12:29:30.499Z,21.70
2018-06-21T12:31:59.483Z,22.50
2018-06-21T12:34:27.607Z,21.50
2018-06-21T12:36:55.914Z,22.00
2018-06-21T12:46:47.900Z,21.60
2018-06-21T12:51:44.047Z,22.80
2018-06-21T12:56:40.429Z,23.50
2018-06-21T12:59:08.656Z,23.10
2018-06-21T13:01:36.873Z,23.90
2018-06-21T13:04:05.044Z,24.00
2018-06-21T13:06:33.220Z,23.40
2018-06-21T13:09:12.784Z,23.40
2018-06-21T13:12:51.508Z,22.90
2018-06-21T13:15:19.729Z,21.80
2018-06-21T13:17:47.933Z,21.60
2018-06-21T13:20:16.082Z,22.70
2018-06-21T13:22:44.317Z,23.70
2018-06-21T13:25:12.451Z,23.20
2018-06-21T13:27:40.607Z,22.30
2018-06-21T13:30:09.441Z,21.60
2018-06-21T13:32:37.700Z,22.40
2018-06-21T13:35:06.329Z,22.60
2018-06-21T13:37:34.539Z,23.30
2018-06-21T13:40:02.927Z,23.20
2018-06-21T13:42:31.100Z,23.60
2018-06-21T13:44:59.293Z,23.00
2018-06-21T13:47:27.456Z,22.70
2018-06-21T13:52:23.564Z,23.20
2018-06-21T13:54:51.789Z,23.40
2018-06-21T13:57:19.996Z,23.70
2018-06-21T13:59:48.240Z,22.20
2018-06-21T14:02:16.405Z,21.60
2018-06-21T14:04:44.589Z,22.30
2018-06-21T14:07:12.893Z,22.00
2018-06-21T14:09:41.040Z,21.60
2018-06-21T14:12:09.224Z,21.70
2018-06-21T14:14:37.456Z,22.40
2018-06-21T14:17:05.761Z,22.70
2018-06-21T14:19:33.954Z,22.60
2018-06-21T14:22:02.184Z,23.20
2018-06-21T14:24:30.408Z,22.70
2018-06-21T14:26:58.599Z,22.30
2018-06-21T14:29:26.775Z,21.70
2018-06-21T14:31:55.041Z,21.30
2018-06-21T14:36:51.190Z,21.50
2018-06-21T14:39:19.358Z,21.40
2018-06-21T14:41:47.536Z,20.90
2018-06-21T14:44:15.716Z,20.20
2018-06-21T14:46:43.884Z,21.40
2018-06-21T14:49:12.053Z,22.10
2018-06-21T14:51:40.273Z,22.00
2018-06-21T14:56:36.403Z,22.40
2018-06-21T14:59:04.573Z,21.80
2018-06-21T15:01:32.753Z,21.60
2018-06-21T15:06:28.857Z,22.00
2018-06-21T15:08:57.089Z,21.10
2018-06-21T15:11:25.377Z,21.80
2018-06-21T15:13:53.823Z,22.70
2018-06-21T15:18:51.074Z,23.30
2018-06-21T15:23:47.573Z,21.70
2018-06-21T15:26:15.927Z,21.10
2018-06-21T15:28:44.256Z,19.90
2018-06-21T15:33:41.066Z,20.50
2018-06-21T15:36:09.988Z,21.30
2018-06-21T15:38:38.162Z,21.90
2018-06-21T15:41:06.328Z,22.20
2018-06-21T15:43:34.540Z,21.40
2018-06-21T15:46:02.708Z,20.10
2018-06-21T15:51:05.220Z,20.20
2018-06-21T15:53:33.425Z,21.20
2018-06-21T15:56:01.612Z,21.40
2018-06-21T15:58:29.928Z,22.00
2018-06-21T16:00:58.106Z,21.40
2018-06-21T16:03:26.340Z,21.40
2018-06-21T16:05:54.472Z,21.20
2018-06-21T16:08:22.680Z,20.30
2018-06-21T16:10:52.036Z,19.60
2018-06-21T16:13:20.245Z,19.10
2018-06-21T16:15:49.090Z,18.90
2018-06-21T16:18:17.395Z,18.70
2018-06-21T16:20:45.564Z,18.90
2018-06-21T16:23:13.913Z,19.00
2018-06-21T16:25:42.094Z,19.20
2018-06-21T16:28:10.274Z,19.10
2018-06-21T16:30:38.461Z,19.30
2018-06-21T16:35:34.804Z,18.60
2018-06-21T16:38:03.101Z,18.70
2018-06-21T16:40:31.286Z,18.30
2018-06-21T16:45:27.828Z,18.20
2018-06-21T16:50:24.284Z,17.70
2018-06-21T16:52:52.472Z,17.60
2018-06-21T16:58:05.683Z,17.60
2018-06-21T17:00:36.449Z,17.50
2018-06-21T17:03:05.723Z,17.40
2018-06-21T17:05:49.059Z,17.40
2018-06-21T17:08:17.337Z,17.30
2018-06-21T17:10:45.468Z,17.70
2018-06-21T17:13:13.667Z,18.10
2018-06-21T17:15:41.925Z,18.10
2018-06-21T17:20:38.061Z,17.60
2018-06-21T17:23:06.503Z,17.70
2018-06-21T17:25:34.698Z,18.50
2018-06-21T17:28:02.937Z,19.10
2018-06-21T17:30:31.909Z,19.70
2018-06-21T17:33:00.737Z,19.80
2018-06-21T17:35:28.880Z,19.10
2018-06-21T17:37:57.036Z,18.80
2018-06-21T17:42:53.118Z,19.30
2018-06-21T17:47:49.216Z,19.00
2018-06-21T17:52:45.323Z,18.90
2018-06-21T17:55:13.496Z,19.00
2018-06-21T17:57:41.719Z,18.70
2018-06-21T18:02:37.829Z,17.60
2018-06-21T18:05:05.677Z,17.30
2018-06-21T18:07:33.853Z,17.60
2018-06-21T18:10:02.065Z,17.90
2018-06-21T18:12:30.233Z,17.80
2018-06-21T18:14:58.394Z,17.70
2018-06-21T18:17:26.578Z,17.30
2018-06-21T18:19:54.732Z,17.00
2018-06-21T18:22:22.884Z,16.70
2018-06-21T18:24:51.059Z,16.50
2018-06-21T18:27:19.220Z,16.50
2018-06-21T18:29:47.381Z,16.20
2018-06-21T18:34:43.484Z,16.20
2018-06-21T18:37:11.649Z,16.00
2018-06-21T18:39:39.848Z,16.00
2018-06-21T18:42:07.988Z,16.00
2018-06-21T18:44:36.135Z,16.00
2018-06-21T18:49:32.240Z,15.80
2018-06-21T18:54:28.359Z,15.50
2018-06-21T18:56:56.524Z,15.60
2018-06-21T18:59:24.697Z,15.50
2018-06-21T19:01:53.292Z,15.40
2018-06-21T19:06:54.689Z,15.30
2018-06-21T19:09:28.311Z,15.20
2018-06-21T19:12:01.764Z,15.20
2018-06-21T19:14:30.305Z,15.20
2018-06-21T19:16:58.528Z,15.20
2018-06-21T19:19:26.811Z,15.10
2018-06-21T19:21:55.308Z,15.10
2018-06-21T19:26:51.422Z,15.00
2018-06-21T19:29:19.633Z,15.00
2018-06-21T19:31:47.799Z,15.00
2018-06-21T19:34:16.196Z,15.00
2018-06-21T19:36:44.356Z,15.00
2018-06-21T19:41:40.661Z,15.00
2018-06-21T19:44:10.048Z,15.10
2018-06-21T19:46:38.470Z,14.90
2018-06-21T19:49:06.696Z,14.90
2018-06-21T19:51:34.837Z,14.90
2018-06-21T19:54:03.464Z,14.90
2018-06-21T19:56:31.760Z,15.00
2018-06-21T19:58:59.906Z,15.00
2018-06-21T20:03:56.017Z,15.00
2018-06-21T20:06:24.216Z,15.00
2018-06-21T20:08:52.355Z,14.90
2018-06-21T20:11:25.956Z,15.00
2018-06-21T20:13:54.129Z,15.00
2018-06-21T20:16:22.269Z,14.80
2018-06-21T20:18:50.422Z,14.80
2018-06-21T20:23:48.620Z,14.70
2018-06-21T20:26:17.250Z,14.60
2018-06-21T20:28:45.438Z,14.50
2018-06-21T20:33:43.996Z,14.30
2018-06-21T20:38:40.905Z,14.20
2018-06-21T20:41:09.334Z,14.20
2018-06-21T20:43:37.476Z,14.20
2018-06-21T20:46:05.629Z,14.20
2018-06-21T20:48:33.804Z,14.10
2018-06-21T20:55:57.893Z,14.00
2018-06-21T20:58:26.065Z,14.00
2018-06-21T21:03:22.740Z,13.90
2018-06-21T21:05:50.909Z,13.80
2018-06-21T21:08:19.101Z,13.70
2018-06-21T21:10:47.292Z,13.70
2018-06-21T21:13:15.451Z,13.70
2018-06-21T21:15:43.600Z,13.60
2018-06-21T21:18:11.766Z,13.50
2018-06-21T21:25:35.761Z,13.30
2018-06-21T21:28:03.895Z,13.30
2018-06-21T21:30:32.045Z,13.20
2018-06-21T21:33:00.232Z,13.20
2018-06-21T21:35:28.615Z,13.10
2018-06-21T21:37:57.036Z,13.10
2018-06-21T21:40:25.619Z,13.00
2018-06-21T21:45:21.660Z,12.90
2018-06-21T21:47:49.843Z,12.90
2018-06-21T21:50:18.013Z,12.90
2018-06-21T21:52:46.189Z,12.90
2018-06-21T21:55:14.371Z,12.80
2018-06-21T21:57:42.527Z,12.80
2018-06-21T22:00:55.886Z,12.70
2018-06-21T22:03:24.025Z,12.70
2018-06-21T22:08:20.122Z,12.50
2018-06-21T22:10:48.541Z,12.60
2018-06-21T22:13:17.027Z,12.50
2018-06-21T22:15:45.208Z,12.50
2018-06-21T22:18:13.360Z,12.50
2018-06-21T22:20:41.508Z,12.40
2018-06-21T22:23:09.728Z,12.40
2018-06-21T22:25:37.884Z,12.30
2018-06-21T22:28:06.049Z,12.30
2018-06-21T22:30:34.215Z,12.20
2018-06-21T22:33:02.395Z,12.20
2018-06-21T22:35:30.568Z,12.20
2018-06-21T22:37:58.749Z,12.20
2018-06-21T22:40:26.914Z,12.10
2018-06-21T22:42:55.065Z,12.10
2018-06-21T22:45:23.240Z,12.10
2018-06-21T22:50:19.289Z,12.00
2018-06-21T22:52:47.464Z,12.00
2018-06-21T22:55:15.645Z,11.90
2018-06-21T23:00:11.721Z,11.90
2018-06-21T23:02:39.890Z,11.80
2018-06-21T23:05:08.089Z,11.80
2018-06-21T23:07:36.271Z,11.70
2018-06-21T23:10:04.481Z,11.70
2018-06-21T23:12:32.654Z,11.70
2018-06-21T23:15:00.840Z,11.60
2018-06-21T23:17:29.004Z,11.60
2018-06-21T23:19:57.171Z,11.60
2018-06-21T23:22:25.328Z,11.60
2018-06-21T23:24:53.482Z,11.50
2018-06-21T23:27:21.625Z,11.40
2018-06-21T23:29:49.788Z,11.40
2018-06-21T23:32:18.140Z,11.30
2018-06-21T23:34:46.320Z,11.30
2018-06-21T23:37:14.485Z,11.20
2018-06-21T23:39:42.664Z,11.20
2018-06-21T23:44:38.736Z,11.10
2018-06-21T23:47:06.868Z,11.00
2018-06-21T23:49:35.113Z,11.00
2018-06-21T23:54:31.213Z,10.90
2018-06-21T23:56:59.384Z,10.90
2018-06-21T23:59:27.560Z,10.80
